sensor_id;sensor_type;location;lat;lon;timestamp;pressure;altitude;pressure_sealevel;temperature;humidity
6028;BME280;3042;43.194;27.646;2023-02-13T00:00:24;103787.34;;;6.59;93.42
6028;BME280;3042;43.194;27.646;2023-02-13T00:02:51;103785.41;;;6.72;93.36
6028;BME280;3042;43.194;27.646;2023-02-13T00:05:18;103789.34;;;6.61;93.20
6028;BME280;3042;43.194;27.646;2023-02-13T00:07:46;103784.44;;;6.71;93.11
6028;BME280;3042;43.194;27.646;2023-02-13T00:10:13;103780.56;;;6.75;93.27
6028;BME280;3042;43.194;27.646;2023-02-13T00:12:41;103779.50;;;6.73;94.43
6028;BME280;3042;43.194;27.646;2023-02-13T00:15:08;103620.03;;;5.85;92.84
6028;BME280;3042;43.194;27.646;2023-02-13T00:17:36;103801.06;;;6.43;93.63
6028;BME280;3042;43.194;27.646;2023-02-13T00:20:03;103826.41;;;5.87;95.16
6028;BME280;3042;43.194;27.646;2023-02-13T00:22:34;103831.53;;;5.94;99.27
6028;BME280;3042;43.194;27.646;2023-02-13T00:25:02;103828.34;;;5.74;98.34
6028;BME280;3042;43.194;27.646;2023-02-13T00:27:29;103807.94;;;6.12;98.20
6028;BME280;3042;43.194;27.646;2023-02-13T00:29:57;103808.91;;;6.29;97.13
6028;BME280;3042;43.194;27.646;2023-02-13T00:32:24;103549.75;;;4.91;96.21
6028;BME280;3042;43.194;27.646;2023-02-13T00:34:51;103813.75;;;6.19;95.34
6028;BME280;3042;43.194;27.646;2023-02-13T00:37:18;103801.88;;;6.35;95.19
6028;BME280;3042;43.194;27.646;2023-02-13T00:39:45;103806.25;;;6.36;93.96
6028;BME280;3042;43.194;27.646;2023-02-13T00:42:12;103830.19;;;6.05;93.83
6028;BME280;3042;43.194;27.646;2023-02-13T00:44:39;103842.16;;;5.97;93.97
6028;BME280;3042;43.194;27.646;2023-02-13T00:47:08;103833.94;;;6.16;95.62
6028;BME280;3042;43.194;27.646;2023-02-13T00:49:39;103834.16;;;6.10;94.87
6028;BME280;3042;43.194;27.646;2023-02-13T00:52:06;103826.22;;;6.23;94.52
6028;BME280;3042;43.194;27.646;2023-02-13T00:54:33;103826.59;;;6.19;93.86
6028;BME280;3042;43.194;27.646;2023-02-13T00:57:00;103832.81;;;6.21;93.07
6028;BME280;3042;43.194;27.646;2023-02-13T00:59:27;103860.03;;;5.74;94.28
6028;BME280;3042;43.194;27.646;2023-02-13T01:01:54;103860.63;;;5.64;94.38
6028;BME280;3042;43.194;27.646;2023-02-13T01:04:22;103848.88;;;5.66;94.90
6028;BME280;3042;43.194;27.646;2023-02-13T01:06:49;103862.78;;;5.68;95.39
6028;BME280;3042;43.194;27.646;2023-02-13T01:09:16;103779.19;;;5.40;95.27
6028;BME280;3042;43.194;27.646;2023-02-13T01:11:43;103852.91;;;5.71;95.42
6028;BME280;3042;43.194;27.646;2023-02-13T01:14:10;103842.88;;;5.89;96.06
6028;BME280;3042;43.194;27.646;2023-02-13T01:16:37;103845.34;;;5.73;94.84
6028;BME280;3042;43.194;27.646;2023-02-13T01:19:04;103846.72;;;5.62;94.81
6028;BME280;3042;43.194;27.646;2023-02-13T01:21:33;103842.69;;;5.20;95.64
6028;BME280;3042;43.194;27.646;2023-02-13T01:24:02;103785.00;;;5.16;96.58
6028;BME280;3042;43.194;27.646;2023-02-13T01:26:30;103833.94;;;5.55;95.91
6028;BME280;3042;43.194;27.646;2023-02-13T01:28:57;103617.38;;;4.25;94.48
6028;BME280;3042;43.194;27.646;2023-02-13T01:31:24;103840.03;;;5.41;93.88
6028;BME280;3042;43.194;27.646;2023-02-13T01:33:51;103852.19;;;5.21;94.81
6028;BME280;3042;43.194;27.646;2023-02-13T01:36:18;103846.16;;;5.20;95.06
6028;BME280;3042;43.194;27.646;2023-02-13T01:38:47;103839.53;;;5.29;96.59
6028;BME280;3042;43.194;27.646;2023-02-13T01:41:14;103843.59;;;5.13;95.98
6028;BME280;3042;43.194;27.646;2023-02-13T01:43:47;103842.72;;;5.57;96.35
6028;BME280;3042;43.194;27.646;2023-02-13T01:46:18;103839.34;;;5.28;95.29
6028;BME280;3042;43.194;27.646;2023-02-13T01:48:47;103854.59;;;5.05;95.86
6028;BME280;3042;43.194;27.646;2023-02-13T01:51:18;103845.75;;;5.17;96.26
6028;BME280;3042;43.194;27.646;2023-02-13T01:53:49;103844.84;;;5.24;96.63
6028;BME280;3042;43.194;27.646;2023-02-13T01:56:21;103845.41;;;5.21;98.41
6028;BME280;3042;43.194;27.646;2023-02-13T01:58:52;103838.78;;;5.31;98.46
6028;BME280;3042;43.194;27.646;2023-02-13T02:01:21;103833.22;;;5.49;98.20
6028;BME280;3042;43.194;27.646;2023-02-13T02:03:53;103812.63;;;5.63;97.21
6028;BME280;3042;43.194;27.646;2023-02-13T02:06:25;103820.63;;;5.74;96.51
6028;BME280;3042;43.194;27.646;2023-02-13T02:08:56;103826.53;;;5.65;95.23
6028;BME280;3042;43.194;27.646;2023-02-13T02:11:31;103806.97;;;5.14;95.16
6028;BME280;3042;43.194;27.646;2023-02-13T02:13:59;103870.41;;;4.58;97.93
6028;BME280;3042;43.194;27.646;2023-02-13T02:16:28;103867.28;;;4.60;100.00
6028;BME280;3042;43.194;27.646;2023-02-13T02:18:57;103866.03;;;4.57;100.00
6028;BME280;3042;43.194;27.646;2023-02-13T02:21:50;103872.59;;;4.40;98.95
6028;BME280;3042;43.194;27.646;2023-02-13T02:28:03;103849.34;;;4.75;100.00
6028;BME280;3042;43.194;27.646;2023-02-13T02:33:40;103850.25;;;4.90;99.24
6028;BME280;3042;43.194;27.646;2023-02-13T02:36:27;103795.94;;;4.56;98.91
6028;BME280;3042;43.194;27.646;2023-02-13T02:39:07;103847.28;;;4.94;99.39
6028;BME280;3042;43.194;27.646;2023-02-13T02:41:53;103849.13;;;4.95;97.53
6028;BME280;3042;43.194;27.646;2023-02-13T02:44:31;103871.84;;;4.41;97.30
6028;BME280;3042;43.194;27.646;2023-02-13T02:47:07;103874.06;;;4.38;99.41
6028;BME280;3042;43.194;27.646;2023-02-13T02:50:03;103856.97;;;3.89;100.00
6028;BME280;3042;43.194;27.646;2023-02-13T02:52:42;103889.31;;;4.02;100.00
6028;BME280;3042;43.194;27.646;2023-02-13T02:55:19;103895.56;;;4.12;100.00
6028;BME280;3042;43.194;27.646;2023-02-13T02:57:51;103879.53;;;4.34;100.00
6028;BME280;3042;43.194;27.646;2023-02-13T03:00:41;103867.09;;;4.44;100.00
6028;BME280;3042;43.194;27.646;2023-02-13T03:03:27;103882.44;;;4.30;100.00
6028;BME280;3042;43.194;27.646;2023-02-13T03:06:15;103861.13;;;3.81;100.00
6028;BME280;3042;43.194;27.646;2023-02-13T03:08:46;103909.28;;;3.56;100.00
6028;BME280;3042;43.194;27.646;2023-02-13T03:11:36;103905.47;;;3.26;100.00
6028;BME280;3042;43.194;27.646;2023-02-13T03:14:23;103882.66;;;3.69;100.00
6028;BME280;3042;43.194;27.646;2023-02-13T03:16:52;103885.00;;;3.67;100.00
6028;BME280;3042;43.194;27.646;2023-02-13T03:19:44;103860.50;;;4.18;100.00
6028;BME280;3042;43.194;27.646;2023-02-13T03:22:39;103828.34;;;4.20;100.00
6028;BME280;3042;43.194;27.646;2023-02-13T03:25:11;103841.47;;;4.44;100.00
6028;BME280;3042;43.194;27.646;2023-02-13T03:27:49;103847.53;;;4.45;100.00
6028;BME280;3042;43.194;27.646;2023-02-13T03:30:45;103845.53;;;4.50;100.00
6028;BME280;3042;43.194;27.646;2023-02-13T03:33:34;103850.28;;;4.39;100.00
6028;BME280;3042;43.194;27.646;2023-02-13T03:36:13;103883.28;;;3.95;100.00
6028;BME280;3042;43.194;27.646;2023-02-13T03:39:04;103860.50;;;4.18;100.00
6028;BME280;3042;43.194;27.646;2023-02-13T03:41:37;103851.72;;;4.30;100.00
6028;BME280;3042;43.194;27.646;2023-02-13T03:44:11;103751.00;;;3.79;99.94
6028;BME280;3042;43.194;27.646;2023-02-13T03:46:41;103861.06;;;4.30;98.98
6028;BME280;3042;43.194;27.646;2023-02-13T03:49:14;103859.59;;;4.32;98.75
6028;BME280;3042;43.194;27.646;2023-02-13T03:52:04;103856.13;;;4.38;98.03
6028;BME280;3042;43.194;27.646;2023-02-13T03:54:38;103860.88;;;4.35;97.66
6028;BME280;3042;43.194;27.646;2023-02-13T03:57:24;103868.19;;;4.25;96.40
6028;BME280;3042;43.194;27.646;2023-02-13T04:00:12;103857.59;;;4.22;95.93
6028;BME280;3042;43.194;27.646;2023-02-13T04:02:48;103863.25;;;4.19;95.51
6028;BME280;3042;43.194;27.646;2023-02-13T04:05:21;103864.69;;;4.17;95.68
6028;BME280;3042;43.194;27.646;2023-02-13T04:07:50;103884.56;;;3.91;94.61
6028;BME280;3042;43.194;27.646;2023-02-13T04:10:19;103887.13;;;3.91;94.76
6028;BME280;3042;43.194;27.646;2023-02-13T04:12:53;103873.06;;;4.02;95.45
6028;BME280;3042;43.194;27.646;2023-02-13T04:15:27;103873.09;;;4.09;94.83
6028;BME280;3042;43.194;27.646;2023-02-13T04:18:02;103872.19;;;4.09;94.89
6028;BME280;3042;43.194;27.646;2023-02-13T04:20:31;103887.47;;;3.87;94.03
6028;BME280;3042;43.194;27.646;2023-02-13T04:23:04;103872.91;;;4.08;94.07
6028;BME280;3042;43.194;27.646;2023-02-13T04:25:34;103876.94;;;4.06;93.45
6028;BME280;3042;43.194;27.646;2023-02-13T04:28:02;103887.75;;;3.62;93.18
6028;BME280;3042;43.194;27.646;2023-02-13T04:30:29;103913.13;;;3.26;92.57
6028;BME280;3042;43.194;27.646;2023-02-13T04:32:56;103902.94;;;3.33;92.90
6028;BME280;3042;43.194;27.646;2023-02-13T04:35:23;103905.50;;;3.33;93.03
6028;BME280;3042;43.194;27.646;2023-02-13T04:37:50;103912.22;;;3.32;94.16
6028;BME280;3042;43.194;27.646;2023-02-13T04:40:18;103899.34;;;3.45;94.98
6028;BME280;3042;43.194;27.646;2023-02-13T04:42:47;103888.13;;;3.65;94.45
6028;BME280;3042;43.194;27.646;2023-02-13T04:45:15;103898.28;;;3.50;94.82
6028;BME280;3042;43.194;27.646;2023-02-13T04:47:42;103902.28;;;3.48;94.88
6028;BME280;3042;43.194;27.646;2023-02-13T04:50:09;103893.19;;;3.57;95.27
6028;BME280;3042;43.194;27.646;2023-02-13T04:52:36;103894.63;;;3.48;95.08
6028;BME280;3042;43.194;27.646;2023-02-13T04:55:04;103887.00;;;3.63;93.85
6028;BME280;3042;43.194;27.646;2023-02-13T04:57:31;103897.75;;;3.53;93.13
6028;BME280;3042;43.194;27.646;2023-02-13T04:59:59;103898.50;;;3.59;93.24
6028;BME280;3042;43.194;27.646;2023-02-13T05:02:26;103911.84;;;3.29;91.45
6028;BME280;3042;43.194;27.646;2023-02-13T05:04:53;103930.94;;;3.11;92.17
6028;BME280;3042;43.194;27.646;2023-02-13T05:07:20;103868.88;;;2.85;91.81
6028;BME280;3042;43.194;27.646;2023-02-13T05:09:47;103933.31;;;3.17;92.35
6028;BME280;3042;43.194;27.646;2023-02-13T05:12:14;103938.91;;;3.07;92.36
6028;BME280;3042;43.194;27.646;2023-02-13T05:14:41;103939.44;;;3.05;93.61
6028;BME280;3042;43.194;27.646;2023-02-13T05:17:10;103896.59;;;3.09;93.88
6028;BME280;3042;43.194;27.646;2023-02-13T05:19:37;103940.34;;;3.05;94.13
6028;BME280;3042;43.194;27.646;2023-02-13T05:22:04;103939.34;;;2.90;95.28
6028;BME280;3042;43.194;27.646;2023-02-13T05:24:48;103877.59;;;2.53;96.09
6028;BME280;3042;43.194;27.646;2023-02-13T05:27:15;103951.09;;;3.03;95.71
6028;BME280;3042;43.194;27.646;2023-02-13T05:29:42;103929.44;;;3.13;95.86
6028;BME280;3042;43.194;27.646;2023-02-13T05:32:08;103936.47;;;3.22;95.34
6028;BME280;3042;43.194;27.646;2023-02-13T05:34:36;103937.84;;;3.40;94.97
6028;BME280;3042;43.194;27.646;2023-02-13T05:37:03;103936.50;;;3.29;94.80
6028;BME280;3042;43.194;27.646;2023-02-13T05:39:30;103926.38;;;3.43;94.65
6028;BME280;3042;43.194;27.646;2023-02-13T05:41:57;103918.72;;;3.50;94.40
6028;BME280;3042;43.194;27.646;2023-02-13T05:44:24;103923.53;;;3.62;94.38
6028;BME280;3042;43.194;27.646;2023-02-13T05:46:51;103917.03;;;3.78;94.74
6028;BME280;3042;43.194;27.646;2023-02-13T05:49:18;103912.25;;;3.74;93.23
6028;BME280;3042;43.194;27.646;2023-02-13T05:51:48;103915.25;;;3.84;92.80
6028;BME280;3042;43.194;27.646;2023-02-13T05:54:16;103792.22;;;3.05;92.46
6028;BME280;3042;43.194;27.646;2023-02-13T05:56:43;103931.63;;;3.72;91.84
6028;BME280;3042;43.194;27.646;2023-02-13T05:59:11;103945.88;;;3.35;91.61
6028;BME280;3042;43.194;27.646;2023-02-13T06:01:38;103932.16;;;3.69;92.24
6028;BME280;3042;43.194;27.646;2023-02-13T06:04:05;103920.75;;;3.94;93.49
6028;BME280;3042;43.194;27.646;2023-02-13T06:06:32;103914.97;;;4.17;92.83
6028;BME280;3042;43.194;27.646;2023-02-13T06:09:00;103884.28;;;4.89;93.98
6028;BME280;3042;43.194;27.646;2023-02-13T06:11:27;103889.03;;;5.00;93.05
6028;BME280;3042;43.194;27.646;2023-02-13T06:13:54;103898.19;;;4.83;90.91
6028;BME280;3042;43.194;27.646;2023-02-13T06:16:21;103872.44;;;5.34;91.25
6028;BME280;3042;43.194;27.646;2023-02-13T06:18:48;103886.03;;;5.25;90.44
6028;BME280;3042;43.194;27.646;2023-02-13T06:21:15;103826.44;;;4.98;89.71
6028;BME280;3042;43.194;27.646;2023-02-13T06:23:42;103837.28;;;5.40;89.44
6028;BME280;3042;43.194;27.646;2023-02-13T06:26:11;103871.34;;;5.46;89.03
6028;BME280;3042;43.194;27.646;2023-02-13T06:28:38;103785.78;;;4.94;89.28
6028;BME280;3042;43.194;27.646;2023-02-13T06:31:05;103880.91;;;5.25;90.00
6028;BME280;3042;43.194;27.646;2023-02-13T06:33:32;103883.47;;;5.25;91.15
6028;BME280;3042;43.194;27.646;2023-02-13T06:35:59;103879.78;;;5.38;92.50
6028;BME280;3042;43.194;27.646;2023-02-13T06:38:26;103908.06;;;4.88;93.67
6028;BME280;3042;43.194;27.646;2023-02-13T06:40:59;103895.03;;;5.15;96.20
6028;BME280;3042;43.194;27.646;2023-02-13T06:43:28;103644.84;;;3.83;98.09
6028;BME280;3042;43.194;27.646;2023-02-13T06:45:55;103645.59;;;3.75;99.71
6028;BME280;3042;43.194;27.646;2023-02-13T06:48:23;103865.66;;;5.86;100.00
6028;BME280;3042;43.194;27.646;2023-02-13T06:50:50;103704.88;;;5.63;99.90
6028;BME280;3042;43.194;27.646;2023-02-13T06:53:18;103876.13;;;6.64;99.20
6028;BME280;3042;43.194;27.646;2023-02-13T06:55:50;103862.84;;;7.07;98.69
6028;BME280;3042;43.194;27.646;2023-02-13T06:58:18;103860.47;;;7.24;97.21
6028;BME280;3042;43.194;27.646;2023-02-13T07:00:46;103860.88;;;7.52;95.16
6028;BME280;3042;43.194;27.646;2023-02-13T07:03:13;103871.06;;;7.59;93.95
6028;BME280;3042;43.194;27.646;2023-02-13T07:05:40;103790.94;;;7.56;92.58
6028;BME280;3042;43.194;27.646;2023-02-13T07:08:08;103712.31;;;7.17;91.81
6028;BME280;3042;43.194;27.646;2023-02-13T07:10:37;103847.66;;;8.14;90.59
6028;BME280;3042;43.194;27.646;2023-02-13T07:13:04;103850.66;;;8.10;89.12
6028;BME280;3042;43.194;27.646;2023-02-13T07:15:32;103853.09;;;8.08;89.09
6028;BME280;3042;43.194;27.646;2023-02-13T07:18:01;103847.41;;;8.19;89.46
6028;BME280;3042;43.194;27.646;2023-02-13T07:20:28;103742.44;;;7.68;88.13
6028;BME280;3042;43.194;27.646;2023-02-13T07:22:57;103843.00;;;8.43;88.25
6028;BME280;3042;43.194;27.646;2023-02-13T07:25:25;103833.78;;;8.54;87.16
6028;BME280;3042;43.194;27.646;2023-02-13T07:27:52;103737.94;;;8.07;86.47
6028;BME280;3042;43.194;27.646;2023-02-13T07:30:19;103827.63;;;8.78;87.16
6028;BME280;3042;43.194;27.646;2023-02-13T07:32:46;103822.69;;;8.88;86.27
6028;BME280;3042;43.194;27.646;2023-02-13T07:35:15;103679.22;;;8.20;86.19
6028;BME280;3042;43.194;27.646;2023-02-13T07:37:42;103620.41;;;7.99;84.28
6028;BME280;3042;43.194;27.646;2023-02-13T07:40:10;103814.25;;;9.41;84.88
6028;BME280;3042;43.194;27.646;2023-02-13T07:42:37;103767.59;;;9.66;84.74
6028;BME280;3042;43.194;27.646;2023-02-13T07:45:05;103786.03;;;9.97;83.86
6028;BME280;3042;43.194;27.646;2023-02-13T07:47:34;103433.19;;;8.15;82.94
6028;BME280;3042;43.194;27.646;2023-02-13T07:50:02;103783.78;;;10.27;83.28
6028;BME280;3042;43.194;27.646;2023-02-13T07:52:31;103770.09;;;10.37;81.96
6028;BME280;3042;43.194;27.646;2023-02-13T07:54:58;103769.50;;;10.40;81.23
6028;BME280;3042;43.194;27.646;2023-02-13T07:57:26;103765.53;;;10.62;81.84
6028;BME280;3042;43.194;27.646;2023-02-13T07:59:53;103513.00;;;9.13;80.88
6028;BME280;3042;43.194;27.646;2023-02-13T08:02:20;103766.78;;;10.85;80.45
6028;BME280;3042;43.194;27.646;2023-02-13T08:04:47;103753.44;;;10.99;80.37
6028;BME280;3042;43.194;27.646;2023-02-13T08:07:15;103749.22;;;11.29;80.61
6028;BME280;3042;43.194;27.646;2023-02-13T08:09:44;103743.47;;;11.41;80.22
6028;BME280;3042;43.194;27.646;2023-02-13T08:12:30;103739.09;;;11.51;78.71
6028;BME280;3042;43.194;27.646;2023-02-13T08:14:58;103743.13;;;11.47;77.10
6028;BME280;3042;43.194;27.646;2023-02-13T08:17:25;103677.03;;;11.42;77.10
6028;BME280;3042;43.194;27.646;2023-02-13T08:19:52;103709.81;;;11.81;76.67
6028;BME280;3042;43.194;27.646;2023-02-13T08:22:21;103730.41;;;12.19;76.68
6028;BME280;3042;43.194;27.646;2023-02-13T08:24:49;103732.22;;;12.40;76.00
6028;BME280;3042;43.194;27.646;2023-02-13T08:27:17;103742.09;;;12.55;76.71
6028;BME280;3042;43.194;27.646;2023-02-13T08:29:44;103729.63;;;12.71;76.33
6028;BME280;3042;43.194;27.646;2023-02-13T08:32:11;103724.19;;;12.88;76.20
6028;BME280;3042;43.194;27.646;2023-02-13T08:34:38;103711.28;;;13.10;75.29
6028;BME280;3042;43.194;27.646;2023-02-13T08:37:05;103639.34;;;12.77;74.31
6028;BME280;3042;43.194;27.646;2023-02-13T08:39:32;103709.81;;;13.24;74.00
6028;BME280;3042;43.194;27.646;2023-02-13T08:42:00;103668.63;;;13.39;73.86
6028;BME280;3042;43.194;27.646;2023-02-13T08:44:27;103714.81;;;13.11;71.62
6028;BME280;3042;43.194;27.646;2023-02-13T08:46:54;103695.53;;;13.40;72.29
6028;BME280;3042;43.194;27.646;2023-02-13T08:49:21;103688.63;;;13.62;72.72
6028;BME280;3042;43.194;27.646;2023-02-13T08:51:49;103684.66;;;13.78;72.66
6028;BME280;3042;43.194;27.646;2023-02-13T08:54:16;103688.75;;;13.86;72.40
6028;BME280;3042;43.194;27.646;2023-02-13T08:56:43;103693.19;;;13.87;71.88
6028;BME280;3042;43.194;27.646;2023-02-13T08:59:11;103682.72;;;13.97;71.51
6028;BME280;3042;43.194;27.646;2023-02-13T09:01:38;103700.25;;;13.78;70.08
6028;BME280;3042;43.194;27.646;2023-02-13T09:04:05;103711.25;;;13.31;68.59
6028;BME280;3042;43.194;27.646;2023-02-13T09:06:32;103685.88;;;13.06;68.94
6028;BME280;3042;43.194;27.646;2023-02-13T09:08:59;103620.16;;;12.55;69.25
6028;BME280;3042;43.194;27.646;2023-02-13T09:11:26;103754.22;;;13.17;69.75
6028;BME280;3042;43.194;27.646;2023-02-13T09:13:54;103611.88;;;12.59;69.97
6028;BME280;3042;43.194;27.646;2023-02-13T09:16:22;103668.63;;;12.86;69.13
6028;BME280;3042;43.194;27.646;2023-02-13T09:18:50;103742.59;;;12.40;68.27
6028;BME280;3042;43.194;27.646;2023-02-13T09:21:19;103724.19;;;12.68;69.84
6028;BME280;3042;43.194;27.646;2023-02-13T09:23:47;103688.56;;;12.55;69.28
6028;BME280;3042;43.194;27.646;2023-02-13T09:26:15;103715.78;;;12.81;69.44
6028;BME280;3042;43.194;27.646;2023-02-13T09:28:42;103721.63;;;12.78;69.53
6028;BME280;3042;43.194;27.646;2023-02-13T09:31:11;103761.25;;;11.47;68.45
6028;BME280;3042;43.194;27.646;2023-02-13T09:33:41;103735.28;;;11.95;69.10
6028;BME280;3042;43.194;27.646;2023-02-13T09:36:11;103751.38;;;11.43;69.74
6028;BME280;3042;43.194;27.646;2023-02-13T09:38:39;103738.94;;;11.49;69.65
6028;BME280;3042;43.194;27.646;2023-02-13T09:41:10;103710.94;;;12.14;69.76
6028;BME280;3042;43.194;27.646;2023-02-13T09:43:43;103612.97;;;11.99;69.16
6028;BME280;3042;43.194;27.646;2023-02-13T09:46:15;103655.47;;;12.42;69.09
6028;BME280;3042;43.194;27.646;2023-02-13T09:48:48;103643.94;;;12.49;68.30
6028;BME280;3042;43.194;27.646;2023-02-13T09:51:18;103545.84;;;12.02;68.24
6028;BME280;3042;43.194;27.646;2023-02-13T09:53:52;103646.59;;;12.71;67.20
6028;BME280;3042;43.194;27.646;2023-02-13T09:56:34;103286.03;;;11.10;66.67
6028;BME280;3042;43.194;27.646;2023-02-13T09:59:11;103615.97;;;13.30;66.58
6028;BME280;3042;43.194;27.646;2023-02-13T10:01:44;103609.56;;;13.26;64.71
6028;BME280;3042;43.194;27.646;2023-02-13T10:04:26;103596.19;;;13.54;64.92
6028;BME280;3042;43.194;27.646;2023-02-13T10:07:03;103594.19;;;13.62;64.54
6028;BME280;3042;43.194;27.646;2023-02-13T10:09:39;103627.31;;;12.67;64.19
6028;BME280;3042;43.194;27.646;2023-02-13T10:12:36;103653.13;;;12.04;64.91
6028;BME280;3042;43.194;27.646;2023-02-13T10:15:19;103654.06;;;11.66;64.69
6028;BME280;3042;43.194;27.646;2023-02-13T10:17:53;103647.00;;;11.83;64.38
6028;BME280;3042;43.194;27.646;2023-02-13T10:20:29;103504.06;;;11.28;63.38
6028;BME280;3042;43.194;27.646;2023-02-13T10:23:01;103603.13;;;12.36;63.83
6028;BME280;3042;43.194;27.646;2023-02-13T10:25:37;103525.78;;;12.53;63.81
6028;BME280;3042;43.194;27.646;2023-02-13T10:28:13;103272.56;;;11.24;62.56
6028;BME280;3042;43.194;27.646;2023-02-13T10:30:49;103561.94;;;13.26;62.76
6028;BME280;3042;43.194;27.646;2023-02-13T10:33:20;103455.72;;;12.85;61.81
6028;BME280;3042;43.194;27.646;2023-02-13T10:36:03;102912.78;;;9.93;63.16
6028;BME280;3042;43.194;27.646;2023-02-13T10:42:42;102806.75;;;9.70;63.87
6028;BME280;3042;43.194;27.646;2023-02-13T10:45:05;103411.16;;;13.35;63.48
6028;BME280;3042;43.194;27.646;2023-02-13T10:47:54;103500.06;;;14.11;63.55
6028;BME280;3042;43.194;27.646;2023-02-13T10:50:28;103486.50;;;13.92;63.35
6028;BME280;3042;43.194;27.646;2023-02-13T10:53:10;103018.56;;;11.41;63.33
6028;BME280;3042;43.194;27.646;2023-02-13T10:55:58;103359.47;;;13.85;63.30
6028;BME280;3042;43.194;27.646;2023-02-13T10:58:37;103481.75;;;14.33;62.27
6028;BME280;3042;43.194;27.646;2023-02-13T11:01:13;103390.63;;;14.08;61.59
6028;BME280;3042;43.194;27.646;2023-02-13T11:03:43;103506.31;;;13.56;60.89
6028;BME280;3042;43.194;27.646;2023-02-13T11:06:14;103484.91;;;13.94;61.26
6028;BME280;3042;43.194;27.646;2023-02-13T11:08:46;103474.53;;;14.18;60.76
6028;BME280;3042;43.194;27.646;2023-02-13T11:11:31;103481.75;;;14.10;60.75
6028;BME280;3042;43.194;27.646;2023-02-13T11:14:09;103462.41;;;14.30;60.70
6028;BME280;3042;43.194;27.646;2023-02-13T11:16:43;103456.06;;;14.62;60.47
6028;BME280;3042;43.194;27.646;2023-02-13T11:19:18;103395.63;;;13.82;59.42
6028;BME280;3042;43.194;27.646;2023-02-13T11:21:49;103450.53;;;14.45;59.79
6028;BME280;3042;43.194;27.646;2023-02-13T11:24:22;103076.53;;;12.45;60.06
6028;BME280;3042;43.194;27.646;2023-02-13T11:26:57;103332.97;;;14.02;60.09
6028;BME280;3042;43.194;27.646;2023-02-13T11:29:26;103192.75;;;13.43;60.16
6028;BME280;3042;43.194;27.646;2023-02-13T11:32:04;103418.38;;;14.93;58.98
6028;BME280;3042;43.194;27.646;2023-02-13T11:34:33;103001.91;;;12.64;59.30
6028;BME280;3042;43.194;27.646;2023-02-13T11:37:27;103345.28;;;14.53;58.95
6028;BME280;3042;43.194;27.646;2023-02-13T11:39:58;103418.97;;;14.64;59.47
6028;BME280;3042;43.194;27.646;2023-02-13T11:42:29;103424.72;;;14.48;58.73
6028;BME280;3042;43.194;27.646;2023-02-13T11:45:02;103404.81;;;14.61;59.68
6028;BME280;3042;43.194;27.646;2023-02-13T11:47:35;103204.16;;;13.94;59.26
6028;BME280;3042;43.194;27.646;2023-02-13T11:50:04;103388.91;;;14.81;58.01
6028;BME280;3042;43.194;27.646;2023-02-13T11:52:34;103391.44;;;14.68;59.01
6028;BME280;3042;43.194;27.646;2023-02-13T11:55:05;103295.16;;;14.31;59.06
6028;BME280;3042;43.194;27.646;2023-02-13T11:57:55;103374.66;;;14.76;58.95
6028;BME280;3042;43.194;27.646;2023-02-13T12:00:29;103369.28;;;14.86;59.15
6028;BME280;3042;43.194;27.646;2023-02-13T12:02:58;103373.28;;;14.81;58.74
6028;BME280;3042;43.194;27.646;2023-02-13T12:05:26;103342.88;;;15.32;59.37
6028;BME280;3042;43.194;27.646;2023-02-13T12:07:57;103282.47;;;15.51;59.22
6028;BME280;3042;43.194;27.646;2023-02-13T12:10:28;103048.06;;;14.44;59.15
6028;BME280;3042;43.194;27.646;2023-02-13T12:12:57;103331.19;;;15.65;58.87
6028;BME280;3042;43.194;27.646;2023-02-13T12:15:27;103260.09;;;15.14;58.65
6028;BME280;3042;43.194;27.646;2023-02-13T12:18:04;103314.53;;;16.03;59.28
6028;BME280;3042;43.194;27.646;2023-02-13T12:20:39;103136.97;;;15.30;59.47
6028;BME280;3042;43.194;27.646;2023-02-13T12:23:18;103314.28;;;16.27;59.16
6028;BME280;3042;43.194;27.646;2023-02-13T12:25:58;103298.56;;;16.40;59.41
6028;BME280;3042;43.194;27.646;2023-02-13T12:28:40;103306.16;;;16.50;59.38
6028;BME280;3042;43.194;27.646;2023-02-13T12:31:31;103272.28;;;16.65;59.54
6028;BME280;3042;43.194;27.646;2023-02-13T12:34:44;103294.22;;;16.68;59.13
6028;BME280;3042;43.194;27.646;2023-02-13T12:37:26;103286.94;;;16.78;58.79
6028;BME280;3042;43.194;27.646;2023-02-13T12:40:13;103290.38;;;16.77;58.63
6028;BME280;3042;43.194;27.646;2023-02-13T12:42:52;103282.88;;;16.68;58.26
6028;BME280;3042;43.194;27.646;2023-02-13T12:45:32;103267.19;;;17.11;58.26
6028;BME280;3042;43.194;27.646;2023-02-13T12:48:20;103280.53;;;16.86;57.71
6028;BME280;3042;43.194;27.646;2023-02-13T12:51:19;103281.53;;;16.88;57.52
6028;BME280;3042;43.194;27.646;2023-02-13T12:57:01;103139.28;;;16.23;56.78
6028;BME280;3042;43.194;27.646;2023-02-13T12:59:42;103244.75;;;17.15;56.95
6028;BME280;3042;43.194;27.646;2023-02-13T13:02:43;103268.44;;;17.33;56.46
6028;BME280;3042;43.194;27.646;2023-02-13T13:05:22;103254.19;;;17.42;56.73
6028;BME280;3042;43.194;27.646;2023-02-13T13:08:13;103137.88;;;16.88;56.26
6028;BME280;3042;43.194;27.646;2023-02-13T13:10:54;103207.88;;;17.25;55.20
6028;BME280;3042;43.194;27.646;2023-02-13T13:13:34;103258.78;;;17.32;55.94
6028;BME280;3042;43.194;27.646;2023-02-13T13:16:11;103262.81;;;17.41;56.25
6028;BME280;3042;43.194;27.646;2023-02-13T13:18:52;103259.56;;;17.45;55.87
6028;BME280;3042;43.194;27.646;2023-02-13T13:21:30;103252.34;;;17.41;56.00
6028;BME280;3042;43.194;27.646;2023-02-13T13:24:04;103241.84;;;17.71;55.38
6028;BME280;3042;43.194;27.646;2023-02-13T13:26:35;103216.72;;;17.75;55.48
6028;BME280;3042;43.194;27.646;2023-02-13T13:29:04;103232.91;;;17.99;55.27
6028;BME280;3042;43.194;27.646;2023-02-13T13:31:35;103238.75;;;17.78;54.69
6028;BME280;3042;43.194;27.646;2023-02-13T13:34:05;103205.91;;;17.83;55.38
6028;BME280;3042;43.194;27.646;2023-02-13T13:36:45;103216.78;;;18.24;55.40
6028;BME280;3042;43.194;27.646;2023-02-13T13:39:27;103210.47;;;18.53;55.17
6028;BME280;3042;43.194;27.646;2023-02-13T13:42:01;103208.59;;;18.50;54.75
6028;BME280;3042;43.194;27.646;2023-02-13T13:44:51;103222.13;;;18.09;54.66